Time;durP1;ratioP1;P1;durP2;ratioP2;P2;SDS_P1;SDS_P2;PMS_P1;PMS_P2;Temp;Humidity;BMP_temperature;BMP_pressure;BME280_temperature;BME280_humidity;BME280_pressure;Samples;Min_cycle;Max_cycle;Signal;HPM_P1;HPM_P2
2023/08/25 00:01:28;;;;;;;9.18;6.57;;;;;;;23.50;60.94;99146.84;5049861;28;20411;-84
2023/08/25 00:03:55;;;;;;;11.57;7.03;;;;;;;23.49;61.26;99155.09;5052379;28;20060;-84
2023/08/25 00:06:21;;;;;;;7.95;6.07;;;;;;;23.48;61.27;99154.28;5051652;28;20494;-83
2023/08/25 00:08:48;;;;;;;9.43;6.72;;;;;;;23.48;61.42;99167.69;5052065;28;20075;-84
2023/08/25 00:11:14;;;;;;;14.90;7.45;;;;;;;23.47;61.29;99157.13;5038533;28;20530;-83
2023/08/25 00:13:41;;;;;;;13.35;7.53;;;;;;;23.45;61.57;99160.00;5032147;28;20058;-82
2023/08/25 00:16:09;;;;;;;10.85;7.22;;;;;;;23.43;61.39;99162.88;5032087;28;20485;-84
2023/08/25 00:18:36;;;;;;;8.75;6.28;;;;;;;23.42;61.53;99149.63;5045203;28;20049;-83
2023/08/25 00:21:02;;;;;;;11.73;7.43;;;;;;;23.40;61.48;99149.81;5020866;28;20045;-82
2023/08/25 00:23:28;;;;;;;11.40;6.80;;;;;;;23.39;61.54;99166.94;5041543;28;20393;-83
2023/08/25 00:25:55;;;;;;;10.75;7.10;;;;;;;23.37;61.66;99162.78;5032089;28;20049;-82
2023/08/25 00:28:22;;;;;;;11.88;6.70;;;;;;;23.35;61.68;99159.44;5043790;28;20088;-84
2023/08/25 00:30:48;;;;;;;10.07;6.93;;;;;;;23.32;61.44;99154.44;5051107;28;20049;-84
2023/08/25 00:33:15;;;;;;;11.65;7.00;;;;;;;23.27;61.61;99147.75;5051862;28;20466;-82
2023/08/25 00:35:42;;;;;;;9.82;7.00;;;;;;;23.25;61.59;99157.84;5051912;28;20064;-83
2023/08/25 00:38:09;;;;;;;10.75;7.15;;;;;;;23.21;61.62;99148.50;5044289;28;20041;-84
2023/08/25 00:40:36;;;;;;;9.95;6.47;;;;;;;23.20;61.89;99159.41;5042915;28;20107;-83
2023/08/25 00:43:03;;;;;;;9.25;6.28;;;;;;;23.17;62.00;99168.66;5051481;28;20049;-83
2023/08/25 00:45:35;;;;;;;13.57;7.10;;;;;;;23.12;62.47;99169.25;5033967;28;20059;-84
2023/08/25 00:48:02;;;;;;;9.02;7.50;;;;;;;23.12;62.19;99165.72;5047852;28;20053;-83
2023/08/25 00:50:29;;;;;;;11.80;7.78;;;;;;;23.09;62.37;99158.88;5031411;28;20058;-84
2023/08/25 00:52:56;;;;;;;8.73;6.80;;;;;;;23.09;62.53;99168.75;5032257;28;20132;-84
2023/08/25 00:55:22;;;;;;;9.25;7.15;;;;;;;23.06;62.49;99169.16;5031727;28;20057;-84
2023/08/25 00:57:49;;;;;;;9.15;7.22;;;;;;;23.04;62.45;99172.84;5031146;28;20053;-84
2023/08/25 01:00:16;;;;;;;8.82;7.25;;;;;;;23.04;62.55;99178.22;5035339;28;20054;-84
2023/08/25 01:02:43;;;;;;;10.98;7.70;;;;;;;23.04;62.52;99183.59;5031594;28;20128;-83
2023/08/25 01:05:09;;;;;;;12.07;8.38;;;;;;;23.03;62.70;99192.63;5033055;28;20090;-83
2023/08/25 01:07:36;;;;;;;11.82;8.63;;;;;;;23.02;62.46;99193.66;5034954;28;20057;-83
2023/08/25 01:10:03;;;;;;;10.55;8.02;;;;;;;23.02;62.66;99187.44;5035709;28;20507;-83
2023/08/25 01:12:46;;;;;;;13.50;8.65;;;;;;;22.98;63.34;99189.69;5034972;28;20503;-83
2023/08/25 01:15:25;;;;;;;12.75;8.40;;;;;;;22.97;63.40;99188.00;5017458;28;20423;-83
2023/08/25 01:18:02;;;;;;;11.20;8.52;;;;;;;22.97;63.38;99184.47;5034852;28;20055;-84
2023/08/25 01:20:30;;;;;;;13.25;9.38;;;;;;;22.98;62.94;99186.16;5044051;28;20049;-83
2023/08/25 01:23:02;;;;;;;11.80;8.93;;;;;;;22.94;63.52;99180.31;5054969;28;20045;-84
2023/08/25 01:25:30;;;;;;;14.35;9.18;;;;;;;22.94;62.93;99169.59;5054945;28;20583;-84
2023/08/25 01:27:58;;;;;;;14.45;10.07;;;;;;;22.93;63.29;99165.25;5054983;28;20136;-83
2023/08/25 01:30:26;;;;;;;13.40;9.43;;;;;;;22.91;63.23;99168.09;5048276;28;20192;-84
2023/08/25 01:32:53;;;;;;;13.68;10.15;;;;;;;22.89;63.03;99164.78;5034475;28;20487;-84
2023/08/25 01:35:26;;;;;;;16.45;10.35;;;;;;;22.85;63.97;99171.53;5034435;28;20065;-84
2023/08/25 01:38:07;;;;;;;12.27;10.20;;;;;;;22.83;63.95;99167.38;5026407;28;20049;-84
2023/08/25 01:40:40;;;;;;;15.32;10.07;;;;;;;22.84;63.91;99171.72;5038822;28;20052;-84
2023/08/25 01:43:10;;;;;;;15.35;10.27;;;;;;;22.83;63.67;99170.06;5027112;28;20411;-84
2023/08/25 01:45:37;;;;;;;12.73;10.32;;;;;;;22.82;63.64;99161.16;5046596;28;20060;-84
2023/08/25 01:48:05;;;;;;;12.68;10.80;;;;;;;22.80;63.82;99167.72;5054137;28;20487;-83
2023/08/25 01:50:35;;;;;;;15.20;11.45;;;;;;;22.78;64.14;99174.13;5052865;28;20057;-83
2023/08/25 01:53:03;;;;;;;15.50;11.10;;;;;;;22.77;63.67;99168.91;5034274;28;20053;-84
2023/08/25 01:55:29;;;;;;;15.77;11.20;;;;;;;22.76;63.68;99173.44;5034077;28;20056;-84
2023/08/25 01:57:55;;;;;;;13.77;11.50;;;;;;;22.74;63.62;99172.81;5033840;28;20060;-84
2023/08/25 02:00:22;;;;;;;15.32;11.15;;;;;;;22.73;63.88;99179.16;5034387;28;20058;-83
2023/08/25 02:02:48;;;;;;;13.82;11.13;;;;;;;22.71;63.85;99173.16;5051060;28;20052;-83
2023/08/25 02:05:15;;;;;;;14.27;11.73;;;;;;;22.70;63.79;99181.38;5053997;28;20487;-84
2023/08/25 02:07:42;;;;;;;17.30;12.02;;;;;;;22.70;64.10;99178.69;5053908;28;20069;-84
2023/08/25 02:10:08;;;;;;;12.77;11.05;;;;;;;22.69;64.14;99177.84;5053723;28;20057;-84
2023/08/25 02:12:34;;;;;;;14.70;11.57;;;;;;;22.68;64.21;99176.19;5053483;28;20041;-84
2023/08/25 02:15:01;;;;;;;17.60;12.23;;;;;;;22.67;64.55;99163.81;5053741;28;20049;-84
2023/08/25 02:17:27;;;;;;;20.02;12.57;;;;;;;22.67;64.56;99173.69;5053363;28;20056;-84
2023/08/25 02:19:54;;;;;;;18.35;12.90;;;;;;;22.65;64.59;99157.78;5053574;28;20053;-84
2023/08/25 02:22:20;;;;;;;17.80;12.90;;;;;;;22.66;64.36;99170.19;5045479;28;20056;-84
2023/08/25 02:24:46;;;;;;;18.05;13.27;;;;;;;22.64;64.50;99164.16;5033822;28;20042;-83
2023/08/25 02:27:13;;;;;;;14.50;12.00;;;;;;;22.63;64.68;99165.19;5033107;28;20057;-84
2023/08/25 02:29:39;;;;;;;15.43;12.10;;;;;;;22.63;64.69;99165.19;5033379;28;20144;-84
2023/08/25 02:32:07;;;;;;;16.98;13.07;;;;;;;22.60;64.90;99169.06;5036830;28;20149;-84
2023/08/25 02:34:34;;;;;;;17.73;12.35;;;;;;;22.59;64.86;99170.09;5053506;28;20525;-84
2023/08/25 02:37:00;;;;;;;15.20;10.55;;;;;;;22.58;64.99;99165.72;5035528;28;20411;-83
2023/08/25 02:39:27;;;;;;;14.07;11.02;;;;;;;22.59;65.00;99166.56;5052791;28;20483;-84
2023/08/25 02:41:53;;;;;;;13.70;10.90;;;;;;;22.57;65.14;99164.06;5053510;28;20182;-84
2023/08/25 02:44:20;;;;;;;14.43;11.07;;;;;;;22.58;65.10;99156.84;5034557;28;20059;-83
2023/08/25 02:46:46;;;;;;;16.17;11.40;;;;;;;22.57;64.91;99153.31;5033312;28;20053;-84
2023/08/25 02:49:12;;;;;;;13.20;10.95;;;;;;;22.55;65.17;99151.84;5032889;28;20526;-84
2023/08/25 02:51:39;;;;;;;12.32;10.00;;;;;;;22.55;65.25;99155.38;5033427;28;20060;-84
2023/08/25 02:54:05;;;;;;;14.50;11.10;;;;;;;22.54;65.36;99147.47;5033618;28;20081;-83
2023/08/25 02:56:31;;;;;;;13.88;10.45;;;;;;;22.54;65.27;99152.84;5032898;28;20049;-84
2023/08/25 02:58:58;;;;;;;14.48;10.55;;;;;;;22.54;65.23;99142.09;5033022;28;20056;-84
2023/08/25 03:01:24;;;;;;;14.68;11.13;;;;;;;22.53;65.18;99143.94;5032658;28;20389;-84
2023/08/25 03:03:51;;;;;;;14.57;11.70;;;;;;;22.52;65.22;99140.44;5041620;28;20071;-84
2023/08/25 03:06:17;;;;;;;12.68;11.10;;;;;;;22.54;65.35;99139.41;5039955;28;20056;-84
2023/08/25 03:08:45;;;;;;;16.67;11.85;;;;;;;22.52;65.17;99139.59;5032835;28;20497;-84
2023/08/25 03:11:11;;;;;;;16.90;11.27;;;;;;;22.52;65.12;99139.59;5032705;28;20073;-84
2023/08/25 03:13:38;;;;;;;16.55;12.52;;;;;;;22.50;65.01;99126.38;5036351;28;20047;-84
2023/08/25 03:16:06;;;;;;;17.60;12.23;;;;;;;22.50;65.32;99126.38;5052726;28;20049;-83
2023/08/25 03:18:34;;;;;;;15.45;12.10;;;;;;;22.49;65.17;99123.84;5052753;28;20434;-85
2023/08/25 03:21:00;;;;;;;14.68;11.98;;;;;;;22.46;65.24;99117.00;5052638;28;20079;-84
2023/08/25 03:23:27;;;;;;;23.80;12.38;;;;;;;22.44;65.17;99121.75;5052756;28;20490;-84
2023/08/25 03:25:53;;;;;;;18.30;13.00;;;;;;;22.44;65.48;99116.38;5039846;28;20049;-84
2023/08/25 03:28:19;;;;;;;17.25;12.25;;;;;;;22.41;65.60;99111.38;5032342;28;20111;-84
2023/08/25 03:30:50;;;;;;;15.98;12.20;;;;;;;22.38;65.82;99104.53;5032801;28;20496;-84
2023/08/25 03:33:16;;;;;;;14.65;11.25;;;;;;;22.38;65.38;99103.66;5031676;28;20046;-84
2023/08/25 03:35:42;;;;;;;13.05;11.52;;;;;;;22.36;65.40;99092.31;5046246;28;20055;-84
2023/08/25 03:38:09;;;;;;;13.15;10.77;;;;;;;22.34;65.40;99088.97;5050995;28;20052;-83
2023/08/25 03:40:35;;;;;;;17.05;12.25;;;;;;;22.31;65.61;99089.34;5037838;28;20419;-84
2023/08/25 03:43:02;;;;;;;15.38;12.63;;;;;;;22.28;65.87;99087.03;5031864;28;20045;-83
2023/08/25 03:45:28;;;;;;;16.48;11.85;;;;;;;22.26;65.76;99084.50;5032998;28;20064;-84
2023/08/25 03:47:55;;;;;;;15.00;11.50;;;;;;;22.25;65.91;99090.91;5032070;28;20049;-83
2023/08/25 03:50:22;;;;;;;18.10;12.32;;;;;;;22.24;66.08;99087.38;5031735;28;20049;-84
2023/08/25 03:52:49;;;;;;;13.82;12.02;;;;;;;22.23;66.29;99090.22;5031743;28;20435;-84
2023/08/25 03:55:16;;;;;;;15.57;11.85;;;;;;;22.21;66.33;99093.09;5037634;28;20503;-84
2023/08/25 03:57:42;;;;;;;16.13;13.40;;;;;;;22.20;66.30;99088.75;5051039;28;20053;-84
2023/08/25 04:00:09;;;;;;;16.73;13.85;;;;;;;22.20;66.48;99093.28;5051705;28;20049;-83
2023/08/25 04:02:39;;;;;;;18.40;13.95;;;;;;;22.18;66.47;99084.56;5051576;28;20484;-83
2023/08/25 04:05:06;;;;;;;15.50;13.20;;;;;;;22.16;66.49;99092.78;5051528;28;20128;-83
2023/08/25 04:07:33;;;;;;;17.30;13.55;;;;;;;22.17;66.51;99105.22;5020357;28;20053;-84
2023/08/25 04:09:59;;;;;;;17.77;14.85;;;;;;;22.15;66.78;99099.19;5031493;28;20706;-83
2023/08/25 04:12:26;;;;;;;18.15;14.55;;;;;;;22.14;66.82;99100.19;5031651;28;20042;-84
2023/08/25 04:14:52;;;;;;;18.90;14.68;;;;;;;22.12;66.98;99095.00;5013710;28;20518;-83
2023/08/25 04:17:18;;;;;;;19.98;14.68;;;;;;;22.12;67.02;99097.69;5032570;28;20055;-82
2023/08/25 04:19:45;;;;;;;18.30;15.00;;;;;;;22.13;67.09;99103.91;5031471;28;20057;-83
2023/08/25 04:22:11;;;;;;;17.23;13.95;;;;;;;22.11;67.08;99105.91;5031811;28;20046;-83
2023/08/25 04:24:38;;;;;;;17.40;15.30;;;;;;;22.11;67.34;99101.38;5031802;28;20348;-84
2023/08/25 04:27:04;;;;;;;19.45;14.60;;;;;;;22.11;67.33;99100.53;5043669;28;20088;-83
2023/08/25 04:29:31;;;;;;;16.63;13.75;;;;;;;22.11;67.33;99095.19;5037829;28;20099;-84
2023/08/25 04:31:57;;;;;;;17.17;14.75;;;;;;;22.12;67.40;99096.84;5051146;28;20045;-83
2023/08/25 04:34:23;;;;;;;15.80;14.25;;;;;;;22.13;67.30;99101.22;5051216;28;20045;-83
2023/08/25 04:36:50;;;;;;;16.25;14.65;;;;;;;22.13;67.33;99096.66;5036088;28;20059;-84
2023/08/25 04:39:16;;;;;;;17.65;14.80;;;;;;;22.13;67.32;99095.84;5032600;28;20064;-83
2023/08/25 04:41:43;;;;;;;16.02;14.23;;;;;;;22.14;67.31;99097.50;5035411;28;20045;-83
2023/08/25 04:44:09;;;;;;;18.48;14.30;;;;;;;22.14;67.38;99094.84;5035511;28;20128;-84
2023/08/25 04:46:35;;;;;;;20.25;14.52;;;;;;;22.13;67.41;99091.31;5045086;28;20063;-84
2023/08/25 04:49:02;;;;;;;16.63;13.68;;;;;;;22.14;67.32;99084.13;5054910;28;20080;-83
2023/08/25 04:51:29;;;;;;;21.42;14.90;;;;;;;22.15;67.34;99083.09;5055448;28;20044;-83
2023/08/25 04:53:55;;;;;;;18.67;15.07;;;;;;;22.16;67.47;99076.72;5055540;28;20053;-83
2023/08/25 04:56:21;;;;;;;16.83;14.23;;;;;;;22.16;67.25;99082.06;5053415;28;20044;-83
2023/08/25 04:58:48;;;;;;;16.23;14.43;;;;;;;22.16;67.54;99079.38;5053124;28;20255;-84
2023/08/25 05:01:15;;;;;;;18.33;15.65;;;;;;;22.15;67.44;99080.41;5017414;28;20138;-83
2023/08/25 05:03:44;;;;;;;17.42;15.30;;;;;;;22.17;67.45;99093.63;5035220;28;20123;-84
2023/08/25 05:06:11;;;;;;;16.63;14.88;;;;;;;22.17;67.50;99089.13;5035255;28;20495;-83
2023/08/25 05:08:37;;;;;;;18.52;16.25;;;;;;;22.19;67.78;99084.41;5034977;28;20049;-83
2023/08/25 05:11:04;;;;;;;17.67;14.40;;;;;;;22.19;67.41;99087.09;5052584;28;20402;-84
2023/08/25 05:13:30;;;;;;;17.85;15.23;;;;;;;22.20;67.55;99080.69;5054757;28;20423;-83
2023/08/25 05:15:57;;;;;;;16.73;15.02;;;;;;;22.21;67.59;99077.00;5054489;28;20052;-86
2023/08/25 05:18:24;;;;;;;17.45;15.38;;;;;;;22.21;67.50;99071.63;5025629;22;20404;-80
2023/08/25 05:20:57;;;;;;;17.52;14.93;;;;;;;22.22;68.15;99077.84;5033214;28;20053;-77
2023/08/25 05:23:24;;;;;;;17.80;15.50;;;;;;;22.24;67.49;99068.59;5034040;28;20045;-83
2023/08/25 05:25:50;;;;;;;18.30;16.15;;;;;;;22.26;67.94;99065.75;5033852;28;20059;-81
2023/08/25 05:28:16;;;;;;;19.27;16.30;;;;;;;22.26;67.89;99073.78;5033757;28;20053;-77
2023/08/25 05:30:47;;;;;;;21.33;16.63;;;;;;;22.26;68.28;99068.44;5025449;28;20048;-79
2023/08/25 05:33:15;;;;;;;16.13;14.40;;;;;;;22.29;67.74;99073.44;5014044;28;20053;-78
2023/08/25 05:35:41;;;;;;;17.45;15.07;;;;;;;22.28;67.98;99074.47;5014133;28;20045;-78
2023/08/25 05:38:08;;;;;;;19.08;16.23;;;;;;;22.30;67.79;99079.63;5013957;28;20048;-77
2023/08/25 05:40:34;;;;;;;19.67;16.90;;;;;;;22.32;67.97;99077.59;5014817;28;20129;-78
2023/08/25 05:43:01;;;;;;;20.65;16.00;;;;;;;22.33;68.20;99079.25;5013752;28;20046;-77
2023/08/25 05:45:27;;;;;;;20.05;15.77;;;;;;;22.35;68.23;99079.94;5032618;28;20037;-80
2023/08/25 05:47:54;;;;;;;23.00;18.23;;;;;;;22.36;68.60;99078.91;5033542;28;20049;-80
2023/08/25 05:50:21;;;;;;;20.25;16.63;;;;;;;22.39;68.72;99075.88;5031228;28;20047;-77
2023/08/25 05:52:47;;;;;;;21.67;18.02;;;;;;;22.43;68.81;99076.31;5032247;28;20045;-77
2023/08/25 05:55:16;;;;;;;22.75;18.85;;;;;;;22.47;68.82;99083.00;5033334;28;20492;-79
2023/08/25 05:57:42;;;;;;;21.35;18.30;;;;;;;22.51;69.01;99090.47;5033515;28;20104;-78
2023/08/25 06:00:09;;;;;;;23.23;19.15;;;;;;;22.56;68.53;99081.09;5032353;28;20465;-78
2023/08/25 06:02:36;;;;;;;23.88;19.05;;;;;;;22.60;68.76;99079.72;5013429;28;20471;-80
2023/08/25 06:05:03;;;;;;;22.52;19.58;;;;;;;22.64;68.41;99081.00;5013462;28;20801;-74
2023/08/25 06:07:30;;;;;;;22.90;20.00;;;;;;;22.68;68.47;99076.13;5013310;28;20048;-76
2023/08/25 06:09:56;;;;;;;23.23;20.08;;;;;;;22.69;68.53;99073.22;4995614;28;20046;-79
2023/08/25 06:12:23;;;;;;;23.35;19.95;;;;;;;22.72;68.29;99070.19;5028797;28;20104;-77
2023/08/25 06:14:51;;;;;;;22.38;19.23;;;;;;;22.75;68.11;99072.50;5033131;28;20051;-80
2023/08/25 06:17:17;;;;;;;21.60;17.67;;;;;;;22.78;68.29;99066.78;5032822;28;20401;-81
2023/08/25 06:19:44;;;;;;;25.10;18.88;;;;;;;22.82;68.42;99075.28;5032790;28;20128;-79
2023/08/25 06:22:11;;;;;;;20.83;17.88;;;;;;;22.84;68.05;99077.78;5030883;28;20143;-77
2023/08/25 06:24:37;;;;;;;18.92;16.92;;;;;;;22.88;68.37;99073.72;5032522;28;20060;-78
2023/08/25 06:27:04;;;;;;;20.05;17.92;;;;;;;22.92;68.40;99061.59;5032677;28;20057;-81
2023/08/25 06:29:30;;;;;;;19.80;16.38;;;;;;;22.96;68.18;99052.16;5032746;28;20042;-77
2023/08/25 06:31:57;;;;;;;19.25;16.38;;;;;;;23.01;68.07;99051.59;5026458;28;20056;-80
2023/08/25 06:34:23;;;;;;;16.27;13.93;;;;;;;23.06;68.13;99053.72;5013187;28;20049;-79
2023/08/25 06:36:50;;;;;;;15.73;13.60;;;;;;;23.11;68.11;99065.56;5030181;28;20060;-78
2023/08/25 06:39:16;;;;;;;17.15;14.65;;;;;;;23.15;67.89;99063.34;5032267;28;20052;-78
2023/08/25 06:41:43;;;;;;;16.10;13.05;;;;;;;23.20;68.10;99068.13;5031136;28;20083;-78
2023/08/25 06:44:09;;;;;;;15.88;14.07;;;;;;;23.23;68.00;99051.66;5032157;28;20477;-84
2023/08/25 06:46:35;;;;;;;15.95;12.70;;;;;;;23.30;67.97;99063.31;5032576;28;20128;-79
2023/08/25 06:49:02;;;;;;;15.00;12.73;;;;;;;23.36;68.15;99061.78;5032331;28;20497;-78
2023/08/25 06:51:28;;;;;;;16.42;11.98;;;;;;;23.42;67.67;99061.00;5027554;28;20120;-80
2023/08/25 06:53:57;;;;;;;11.45;10.35;;;;;;;23.49;67.47;99055.72;5012616;28;20054;-80
2023/08/25 06:56:24;;;;;;;11.57;9.20;;;;;;;23.56;67.05;99056.63;5012821;28;20403;-86
2023/08/25 06:58:50;;;;;;;10.05;7.90;;;;;;;23.63;66.89;99062.88;5012708;28;20046;-81
2023/08/25 07:01:18;;;;;;;17.55;13.20;;;;;;;23.70;67.06;99065.66;5012393;28;20085;-83
2023/08/25 07:03:44;;;;;;;18.58;14.80;;;;;;;23.78;67.09;99070.06;5013644;28;20046;-80
2023/08/25 07:06:11;;;;;;;17.67;15.13;;;;;;;23.87;67.29;99063.53;5032285;28;20049;-79
2023/08/25 07:08:37;;;;;;;20.83;16.75;;;;;;;23.94;67.64;99072.50;5032142;28;20045;-78
2023/08/25 07:11:04;;;;;;;19.80;16.65;;;;;;;24.03;67.44;99080.47;5032219;28;20536;-79
2023/08/25 07:13:34;;;;;;;18.58;16.58;;;;;;;24.11;67.23;99095.63;5018623;28;20089;-78
2023/08/25 07:16:00;;;;;;;23.95;17.30;;;;;;;24.18;67.53;99089.28;5007113;28;20124;-79
2023/08/25 07:18:27;;;;;;;18.15;15.27;;;;;;;24.26;67.07;99091.00;5033422;28;20079;-78
2023/08/25 07:20:53;;;;;;;19.50;15.68;;;;;;;24.32;66.44;99082.19;5032989;28;20099;-80
2023/08/25 07:23:20;;;;;;;22.02;15.65;;;;;;;24.39;66.60;99078.69;5032231;28;20060;-78
2023/08/25 07:25:51;;;;;;;20.98;17.20;;;;;;;24.43;66.85;99070.06;5030341;28;20045;-78
2023/08/25 07:28:18;;;;;;;21.92;16.13;;;;;;;24.50;65.97;99050.44;5012939;28;20128;-83
2023/08/25 07:30:44;;;;;;;18.23;16.30;;;;;;;24.53;65.91;99053.56;5012707;28;20042;-79
2023/08/25 07:33:10;;;;;;;18.67;16.05;;;;;;;24.55;65.88;99048.81;4994928;28;20120;-79
2023/08/25 07:35:37;;;;;;;18.55;16.60;;;;;;;24.56;66.14;99055.03;5012654;28;20049;-78
2023/08/25 07:38:04;;;;;;;22.27;17.48;;;;;;;24.57;65.82;99051.31;5030034;28;20084;-77
2023/08/25 07:40:31;;;;;;;17.40;15.55;;;;;;;24.56;65.23;99052.34;5031981;28;20448;-81
2023/08/25 07:43:03;;;;;;;19.55;17.42;;;;;;;24.56;65.35;99069.31;5032147;28;20050;-77
2023/08/25 07:45:30;;;;;;;22.37;18.37;;;;;;;24.53;65.38;99069.72;5031849;28;20053;-80
2023/08/25 07:48:01;;;;;;;20.38;16.90;;;;;;;24.52;64.85;99073.41;5017832;28;20046;-80
2023/08/25 07:50:29;;;;;;;18.73;16.70;;;;;;;24.50;64.90;99075.47;5012260;28;20057;-78
2023/08/25 07:52:56;;;;;;;24.42;19.63;;;;;;;24.47;64.96;99073.19;5011947;28;20046;-83
2023/08/25 07:55:23;;;;;;;23.73;20.02;;;;;;;24.43;64.72;99061.16;4994359;28;20046;-78
2023/08/25 07:57:50;;;;;;;19.65;17.60;;;;;;;24.39;64.62;99041.03;5021481;28;20052;-84
2023/08/25 08:00:18;;;;;;;24.35;19.38;;;;;;;24.35;64.99;99029.84;5031541;28;20482;-79
2023/08/25 08:02:46;;;;;;;22.23;18.42;;;;;;;24.30;64.80;99027.75;5031486;28;20536;-75
2023/08/25 08:05:17;;;;;;;24.40;20.13;;;;;;;24.26;64.95;99026.47;5031835;28;20128;-77
2023/08/25 08:07:45;;;;;;;20.23;17.92;;;;;;;24.23;64.79;99029.56;5024916;28;20046;-82
2023/08/25 08:10:12;;;;;;;23.58;18.70;;;;;;;24.19;65.09;99029.09;4994132;28;20057;-78
2023/08/25 08:12:42;;;;;;;22.58;19.23;;;;;;;24.17;65.51;99044.63;5011503;28;20038;-79
2023/08/25 08:15:10;;;;;;;19.52;17.17;;;;;;;24.15;65.73;99064.66;4993733;28;20136;-83
2023/08/25 08:17:38;;;;;;;20.08;17.60;;;;;;;24.13;65.68;99072.06;4996688;28;20470;-80
2023/08/25 08:20:07;;;;;;;24.88;17.65;;;;;;;24.12;65.88;99071.25;5031170;28;20084;-84
2023/08/25 08:22:33;;;;;;;23.08;18.35;;;;;;;24.12;65.46;99065.88;5031248;28;20543;-79
2023/08/25 08:25:00;;;;;;;23.58;18.50;;;;;;;24.11;65.80;99049.94;5013444;28;20041;-78
2023/08/25 08:27:26;;;;;;;22.15;18.25;;;;;;;24.09;65.85;99052.78;5013355;28;20063;-78
2023/08/25 08:29:53;;;;;;;22.80;18.17;;;;;;;24.07;66.01;99071.78;5012398;28;20129;-80
2023/08/25 08:32:19;;;;;;;21.20;17.42;;;;;;;24.06;65.80;99094.34;5024702;28;20884;-79
2023/08/25 08:34:46;;;;;;;22.10;18.90;;;;;;;24.04;66.06;99095.56;5031126;28;20132;-84
2023/08/25 08:37:12;;;;;;;24.52;18.20;;;;;;;24.02;65.94;99086.81;5031066;28;20084;-79
2023/08/25 08:39:39;;;;;;;21.80;17.63;;;;;;;23.99;65.88;99106.06;5018578;28;20056;-80
2023/08/25 08:42:07;;;;;;;20.75;16.73;;;;;;;23.96;66.15;99109.97;5014031;28;20068;-83
2023/08/25 08:44:37;;;;;;;21.23;18.17;;;;;;;23.91;65.98;99107.84;5013112;28;20049;-77
2023/08/25 08:47:05;;;;;;;23.13;17.40;;;;;;;23.90;66.09;99100.78;5030973;28;20521;-77
2023/08/25 08:49:33;;;;;;;17.90;15.95;;;;;;;23.87;66.23;99089.56;5021083;28;20486;-78
2023/08/25 08:52:01;;;;;;;20.02;16.95;;;;;;;23.86;66.09;99101.34;5011260;28;20054;-79
2023/08/25 08:54:28;;;;;;;24.08;19.08;;;;;;;23.86;66.17;99114.78;5011206;28;20132;-78
2023/08/25 08:56:55;;;;;;;20.40;18.02;;;;;;;23.86;66.42;99144.34;5010798;28;20046;-79
2023/08/25 08:59:22;;;;;;;19.92;17.67;;;;;;;23.84;66.49;99139.16;5016389;28;20117;-84
2023/08/25 09:01:49;;;;;;;22.48;17.38;;;;;;;23.81;66.18;99135.00;5030906;28;20045;-80
2023/08/25 09:04:20;;;;;;;21.90;19.10;;;;;;;23.79;66.75;99128.16;5030756;28;20108;-78
2023/08/25 09:06:51;;;;;;;22.65;18.27;;;;;;;23.78;66.57;99137.25;5013138;28;20049;-80
2023/08/25 09:09:19;;;;;;;23.02;19.25;;;;;;;23.76;66.50;99133.91;5029128;28;20076;-79
2023/08/25 09:11:47;;;;;;;19.98;17.75;;;;;;;23.73;66.46;99142.38;5011152;28;20046;-78
2023/08/25 09:14:23;;;;;;;26.23;19.38;;;;;;;23.67;66.88;99138.56;5010926;28;20041;-78
2023/08/25 09:16:54;;;;;;;22.05;19.25;;;;;;;23.65;67.16;99124.47;5011143;28;20049;-78
2023/08/25 09:19:21;;;;;;;24.60;19.45;;;;;;;23.65;67.04;99114.59;4993149;28;20596;-83
2023/08/25 09:21:48;;;;;;;24.98;19.80;;;;;;;23.62;66.71;99122.19;5011860;28;20042;-79
2023/08/25 09:24:19;;;;;;;25.50;21.40;;;;;;;23.59;67.64;99122.56;5030403;28;20045;-77
2023/08/25 09:26:46;;;;;;;24.60;20.48;;;;;;;23.59;67.22;99126.09;5032641;28;20037;-77
2023/08/25 09:29:16;;;;;;;24.17;20.65;;;;;;;23.59;67.58;99142.22;5033941;28;20050;-83
2023/08/25 09:31:43;;;;;;;22.15;19.65;;;;;;;23.59;67.30;99144.06;5018571;28;20042;-81
2023/08/25 09:34:15;;;;;;;22.58;18.38;;;;;;;23.60;67.53;99145.72;4996619;28;20064;-79
2023/08/25 09:36:52;;;;;;;26.48;20.25;;;;;;;23.55;68.12;99160.53;5014572;28;20050;-84
2023/08/25 09:39:20;;;;;;;24.27;20.63;;;;;;;23.60;67.73;99151.09;5014135;28;20137;-79
2023/08/25 09:41:47;;;;;;;24.63;19.83;;;;;;;23.61;67.49;99152.75;5014654;28;20046;-78
2023/08/25 09:44:15;;;;;;;25.10;21.13;;;;;;;23.61;67.62;99136.63;5014746;28;20045;-78
2023/08/25 09:46:43;;;;;;;23.35;20.17;;;;;;;23.60;67.87;99130.44;5015300;28;20096;-78
2023/08/25 09:49:14;;;;;;;23.75;20.73;;;;;;;23.59;67.87;99128.78;4997575;28;20050;-78
2023/08/25 09:51:42;;;;;;;24.45;20.08;;;;;;;23.60;68.08;99121.53;5015530;28;20046;-84
2023/08/25 09:54:12;;;;;;;21.92;18.90;;;;;;;23.61;68.26;99120.50;4997559;28;20053;-81
2023/08/25 09:56:40;;;;;;;24.70;19.73;;;;;;;23.62;68.36;99106.06;5014908;28;20050;-77
2023/08/25 10:01:38;;;;;;;26.30;19.63;;;;;;;23.67;68.57;99090.22;5010876;28;20045;-80
2023/08/25 10:04:05;;;;;;;24.42;19.23;;;;;;;23.68;68.46;99081.97;5014105;28;20050;-77
2023/08/25 10:06:33;;;;;;;22.48;18.77;;;;;;;23.70;68.77;99076.41;5014642;28;20557;-83
2023/08/25 10:09:01;;;;;;;21.33;17.65;;;;;;;23.71;68.25;99086.13;5014158;28;20145;-93
2023/08/25 10:11:33;;;;;;;22.92;18.42;;;;;;;23.74;68.18;99099.16;5014052;28;20054;-78
2023/08/25 10:14:04;;;;;;;21.85;18.42;;;;;;;23.74;68.60;99104.53;5013896;28;20145;-79
2023/08/25 10:16:37;;;;;;;24.60;17.40;;;;;;;23.76;68.54;99101.66;5013105;28;20136;-77
2023/08/25 10:19:05;;;;;;;20.67;17.63;;;;;;;23.78;68.04;99091.56;5014155;28;20081;-77
2023/08/25 10:21:34;;;;;;;17.75;15.82;;;;;;;23.77;68.08;99087.22;5013079;28;20049;-78
2023/08/25 10:24:02;;;;;;;20.05;17.40;;;;;;;23.79;67.83;99088.69;5014263;28;20049;-79
2023/08/25 10:26:29;;;;;;;21.15;16.77;;;;;;;23.79;67.97;99077.94;5014188;28;20541;-80
2023/08/25 10:28:56;;;;;;;19.70;16.70;;;;;;;23.79;68.10;99086.00;5013800;28;20056;-79
2023/08/25 10:31:25;;;;;;;20.35;16.63;;;;;;;23.80;68.19;99092.19;5013875;28;20121;-77
2023/08/25 10:33:52;;;;;;;20.55;16.50;;;;;;;23.81;67.94;99094.69;5013746;28;20073;-84
2023/08/25 10:36:21;;;;;;;18.75;16.38;;;;;;;23.82;68.36;99096.34;5014094;28;20115;-78
2023/08/25 10:38:54;;;;;;;21.90;17.33;;;;;;;23.80;68.19;99086.81;5014079;28;20510;-80
2023/08/25 10:41:23;;;;;;;24.42;18.80;;;;;;;23.82;68.18;99090.16;5014094;28;20148;-79
2023/08/25 10:43:51;;;;;;;23.73;16.70;;;;;;;23.82;67.95;99093.66;5014072;28;20085;-78
2023/08/25 10:46:20;;;;;;;21.98;16.63;;;;;;;23.81;67.90;99086.63;5013411;28;20471;-81
2023/08/25 10:49:06;;;;;;;20.77;17.05;;;;;;;23.78;68.70;99081.63;5013857;28;20450;-80
2023/08/25 10:51:36;;;;;;;20.90;17.10;;;;;;;23.80;67.89;99082.28;5013405;28;20045;-78
2023/08/25 10:54:03;;;;;;;19.63;17.27;;;;;;;23.79;68.05;99052.91;5013941;28;20054;-78
2023/08/25 10:56:30;;;;;;;22.23;17.60;;;;;;;23.77;68.09;99052.28;5013882;28;20056;-78
2023/08/25 10:59:12;;;;;;;23.38;16.50;;;;;;;23.72;68.69;99034.03;5013612;28;20417;-81
2023/08/25 11:01:38;;;;;;;22.48;16.42;;;;;;;23.75;67.98;98992.53;5013339;28;20490;-77
2023/08/25 11:04:11;;;;;;;19.30;15.95;;;;;;;23.73;68.17;98984.66;5013392;28;20053;-82
2023/08/25 11:06:45;;;;;;;;;;;;;;;23.72;67.96;99009.88;5014324;28;20054;-79
2023/08/25 11:09:17;;;;;;;16.65;14.88;;;;;;;23.72;68.25;99031.38;5013157;28;19921;-84
2023/08/25 11:11:45;;;;;;;20.65;15.82;;;;;;;23.71;67.99;99061.94;5013535;28;20068;-78
2023/08/25 11:14:13;;;;;;;18.55;16.17;;;;;;;23.68;67.96;99083.81;5013591;28;20064;-78
2023/08/25 11:16:40;;;;;;;17.63;15.52;;;;;;;23.65;67.62;99079.66;5013196;28;20060;-80
2023/08/25 11:19:10;;;;;;;19.05;13.55;;;;;;;23.62;67.98;99090.78;5011554;28;20054;-78
2023/08/25 11:21:37;;;;;;;16.30;13.32;;;;;;;23.61;68.17;99078.38;5012889;28;20081;-78
2023/08/25 11:24:03;;;;;;;16.60;14.30;;;;;;;23.59;67.95;99084.97;5012336;28;20494;-79